FDB1025 OMDB-VRMM
Flight info
| Callsign | FDB1025 |
|---|---|
| Flight time | N/A |
| Altitude | 39000 |
| Route | ANVIX L223 TARDI N629 GIDAN P570 KITAL L894 DONSA/N0469F370 L894 ELBET ELBET1A |
| Aircraft | B38M/M-SDE1FGHILORVWXY/HB1 |
Departure
| Time | N/A |
|---|---|
| Airport | Dubai International Airport (OMDB) |
Arrival
| Time | 2026-05-08 18:56 |
|---|---|
| Airport | Velana International Airport (VRMM) |
| Time | Latitude | Longitude | Altitude | Speed | Heading |
|---|---|---|---|---|---|
| 2026-05-08 18:56 | 4.20208 | 73.52901 | 15 ft | 25 kts | 179° |
| 2026-05-08 18:56 | 4.20042 | 73.52904 | 16 ft | 24 kts | 179° |
| 2026-05-08 18:57 | 4.19880 | 73.52905 | 15 ft | 23 kts | 179° |
| 2026-05-08 18:57 | 4.19773 | 73.52906 | 15 ft | 24 kts | 180° |
| 2026-05-08 18:57 | 4.19554 | 73.52910 | 15 ft | 24 kts | 178° |
| 2026-05-08 18:57 | 4.19388 | 73.52913 | 15 ft | 25 kts | 179° |
| 2026-05-08 18:58 | 4.19213 | 73.52916 | 15 ft | 24 kts | 178° |
| 2026-05-08 18:58 | 4.19053 | 73.52919 | 15 ft | 22 kts | 179° |
| 2026-05-08 18:58 | 4.18889 | 73.52922 | 15 ft | 25 kts | 179° |
| 2026-05-08 18:58 | 4.18741 | 73.52924 | 15 ft | 13 kts | 179° |
| 2026-05-08 18:59 | 4.18683 | 73.52893 | 15 ft | 10 kts | 267° |
| 2026-05-08 18:59 | 4.18635 | 73.52855 | 15 ft | 11 kts | 180° |
| 2026-05-08 18:59 | 4.18550 | 73.52858 | 15 ft | 12 kts | 179° |
| 2026-05-08 18:59 | 4.18497 | 73.52859 | 15 ft | 0 kts | 179° |
| 2026-05-08 19:00 | 4.18495 | 73.52859 | 15 ft | 0 kts | 179° |
| 2026-05-08 19:00 | 4.18493 | 73.52859 | 15 ft | 1 kts | 179° |
| 2026-05-08 19:00 | 4.18480 | 73.52859 | 15 ft | 3 kts | 180° |
| 2026-05-08 19:01 | 4.18467 | 73.52850 | 17 ft | 2 kts | 242° |
| 2026-05-08 19:01 | 4.18462 | 73.52825 | 15 ft | 5 kts | 265° |
| 2026-05-08 19:01 | 4.18461 | 73.52793 | 15 ft | 4 kts | 270° |
| 2026-05-08 19:01 | 4.18461 | 73.52791 | 15 ft | 0 kts | 270° |